sensor_id;sensor_type;location;lat;lon;timestamp;P1;P2;P0
45312;PMS7003;68267;51.540;5.854;2023-10-13T00:06:17;20.89;21.16;18.98
45312;PMS7003;68267;51.540;5.854;2023-10-13T00:19:37;19.81;19.19;17.67
45312;PMS7003;68267;51.540;5.854;2023-10-13T00:32:57;17.53;19.19;17.99
45312;PMS7003;68267;51.540;5.854;2023-10-13T00:46:16;18.13;18.87;17.23
45312;PMS7003;68267;51.540;5.854;2023-10-13T00:59:36;17.89;17.89;16.25
45312;PMS7003;68267;51.540;5.854;2023-10-13T01:12:56;16.09;16.69;15.6
45312;PMS7003;68267;51.540;5.854;2023-10-13T01:26:16;13.09;15.16;13.74
45312;PMS7003;68267;51.540;5.854;2023-10-13T01:39:35;12.85;14.94;13.85
45312;PMS7003;68267;51.540;5.854;2023-10-13T01:52:55;15.85;16.25;14.62
45312;PMS7003;68267;51.540;5.854;2023-10-13T02:06:15;16.69;18.43;16.47
45312;PMS7003;68267;51.540;5.854;2023-10-13T02:19:34;17.89;19.52;18.1
45312;PMS7003;68267;51.540;5.854;2023-10-13T02:32:54;17.77;19.41;17.89
45312;PMS7003;68267;51.540;5.854;2023-10-13T02:46:14;21.01;20.5;18.98
45312;PMS7003;68267;51.540;5.854;2023-10-13T02:59:34;17.77;19.41;17.89
45312;PMS7003;68267;51.540;5.854;2023-10-13T03:12:53;19.09;20.61;19.19
45312;PMS7003;68267;51.540;5.854;2023-10-13T03:26:13;20.53;21.92;19.85
45312;PMS7003;68267;51.540;5.854;2023-10-13T03:39:33;20.17;21.16;18.76
45312;PMS7003;68267;51.540;5.854;2023-10-13T03:52:55;21.01;20.61;19.08
45312;PMS7003;68267;51.540;5.854;2023-10-13T04:06:15;20.53;21.92;20.17
45312;PMS7003;68267;51.540;5.854;2023-10-13T04:19:34;21.13;21.92;20.17
45312;PMS7003;68267;51.540;5.854;2023-10-13T04:32:54;19.21;20.72;19.08
45312;PMS7003;68267;51.540;5.854;2023-10-13T04:46:14;19.45;20.17;18.32
45312;PMS7003;68267;51.540;5.854;2023-10-13T04:59:34;18.01;18.87;17.01
45312;PMS7003;68267;51.540;5.854;2023-10-13T05:12:53;16.81;17.56;16.14
45312;PMS7003;68267;51.540;5.854;2023-10-13T05:26:13;15.37;14.72;13.2
45312;PMS7003;68267;51.540;5.854;2023-10-13T05:39:33;10.09;12.44;11.56
45312;PMS7003;68267;51.540;5.854;2023-10-13T05:52:52;11.65;12.11;11.13
45312;PMS7003;68267;51.540;5.854;2023-10-13T06:06:12;8.89;11.35;10.15
45312;PMS7003;68267;51.540;5.854;2023-10-13T06:19:32;11.29;12.33;11.35
45312;PMS7003;68267;51.540;5.854;2023-10-13T06:32:52;14.41;10.58;9.27
45312;PMS7003;68267;51.540;5.854;2023-10-13T06:46:11;9.25;11.67;9.38
45312;PMS7003;68267;51.540;5.854;2023-10-13T06:59:31;8.05;10.58;8.84
45312;PMS7003;68267;51.540;5.854;2023-10-13T07:12:53;10.21;10.04;8.84
45312;PMS7003;68267;51.540;5.854;2023-10-13T07:26:13;11.77;11.02;9.06
45312;PMS7003;68267;51.540;5.854;2023-10-13T07:39:33;8.65;11.13;9.17
45312;PMS7003;68267;51.540;5.854;2023-10-13T07:52:52;33.98;11.02;8.95
45312;PMS7003;68267;51.540;5.854;2023-10-13T08:06:12;7.81;10.36;8.62
45312;PMS7003;68267;51.540;5.854;2023-10-13T08:19:32;6.49;9.17;7.64
45312;PMS7003;68267;51.540;5.854;2023-10-13T08:32:51;9.01;9.49;8.29
45312;PMS7003;68267;51.540;5.854;2023-10-13T08:46:11;6.61;9.27;7.2
45312;PMS7003;68267;51.540;5.854;2023-10-13T08:59:31;5.65;8.4;6.77
45312;PMS7003;68267;51.540;5.854;2023-10-13T09:12:51;6.73;7.75;6.66
45312;PMS7003;68267;51.540;5.854;2023-10-13T09:26:10;6.61;9.27;6.88
45312;PMS7003;68267;51.540;5.854;2023-10-13T09:39:30;6.01;8.73;6.88
45312;PMS7003;68267;51.540;5.854;2023-10-13T09:52:50;6.73;8.4;6.88
45312;PMS7003;68267;51.540;5.854;2023-10-13T10:06:10;5.41;8.18;7.09
45312;PMS7003;68267;51.540;5.854;2023-10-13T10:19:32;5.89;8.62;6.88
45312;PMS7003;68267;51.540;5.854;2023-10-13T10:32:51;8.89;9.27;7.09
45312;PMS7003;68267;51.540;5.854;2023-10-13T10:46:11;10.45;7.75;6.77
45312;PMS7003;68267;51.540;5.854;2023-10-13T10:59:31;11.65;9.27;7.31
45312;PMS7003;68267;51.540;5.854;2023-10-13T11:12:51;5.65;8.4;6.99
45312;PMS7003;68267;51.540;5.854;2023-10-13T11:26:10;8.89;8.51;6.77
45312;PMS7003;68267;51.540;5.854;2023-10-13T11:39:30;6.01;8.73;6.88
45312;PMS7003;68267;51.540;5.854;2023-10-13T11:52:50;8.41;8.51;6.44
45312;PMS7003;68267;51.540;5.854;2023-10-13T12:06:09;14.77;8.73;7.09
45312;PMS7003;68267;51.540;5.854;2023-10-13T12:19:29;8.05;9.38;6.88
45312;PMS7003;68267;51.540;5.854;2023-10-13T12:32:49;9.37;9.38;7.09
45312;PMS7003;68267;51.540;5.854;2023-10-13T12:46:08;10.93;8.84;6.77
45312;PMS7003;68267;51.540;5.854;2023-10-13T12:59:28;5.53;8.29;6.33
45312;PMS7003;68267;51.540;5.854;2023-10-13T13:12:48;8.17;8.84;6.44
45312;PMS7003;68267;51.540;5.854;2023-10-13T13:26:08;9.13;8.18;6.0
45312;PMS7003;68267;51.540;5.854;2023-10-13T13:39:27;10.21;8.29;5.68
45312;PMS7003;68267;51.540;5.854;2023-10-13T13:52:47;6.85;8.08;5.9
45312;PMS7003;68267;51.540;5.854;2023-10-13T14:06:07;9.73;7.64;5.46
45312;PMS7003;68267;51.540;5.854;2023-10-13T14:19:26;8.41;7.97;5.68
45312;PMS7003;68267;51.540;5.854;2023-10-13T14:32:46;6.97;7.53;5.9
45312;PMS7003;68267;51.540;5.854;2023-10-13T14:46:06;9.85;8.08;5.9
45312;PMS7003;68267;51.540;5.854;2023-10-13T14:59:26;9.73;8.84;6.0
45312;PMS7003;68267;51.540;5.854;2023-10-13T15:12:45;6.25;8.95;6.66
45312;PMS7003;68267;51.540;5.854;2023-10-13T15:26:05;10.69;8.18;6.44
45312;PMS7003;68267;51.540;5.854;2023-10-13T15:39:25;12.25;8.08;6.11
45312;PMS7003;68267;51.540;5.854;2023-10-13T15:52:44;6.61;7.75;6.88
45312;PMS7003;68267;51.540;5.854;2023-10-13T16:06:04;9.61;8.08;6.99
45312;PMS7003;68267;51.540;5.854;2023-10-13T16:19:26;9.37;9.27;6.77
45312;PMS7003;68267;51.540;5.854;2023-10-13T16:32:48;6.37;9.06;7.53
45312;PMS7003;68267;51.540;5.854;2023-10-13T16:46:08;8.53;8.29;6.88
45312;PMS7003;68267;51.540;5.854;2023-10-13T16:59:28;6.73;8.29;7.09
45312;PMS7003;68267;51.540;5.854;2023-10-13T17:12:48;5.77;8.51;6.99
45312;PMS7003;68267;51.540;5.854;2023-10-13T17:26:07;7.57;9.27;8.08
45312;PMS7003;68267;51.540;5.854;2023-10-13T17:39:27;8.77;9.49;8.29
45312;PMS7003;68267;51.540;5.854;2023-10-13T17:52:47;9.85;10.15;9.06
45312;PMS7003;68267;51.540;5.854;2023-10-13T18:06:06;7.09;9.71;8.29
45312;PMS7003;68267;51.540;5.854;2023-10-13T18:19:26;7.81;10.36;8.4
45312;PMS7003;68267;51.540;5.854;2023-10-13T18:32:46;23.89;9.82;8.51
45312;PMS7003;68267;51.540;5.854;2023-10-13T18:46:06;8.17;10.69;8.95
45312;PMS7003;68267;51.540;5.854;2023-10-13T18:59:25;10.09;12.44;10.04
45312;PMS7003;68267;51.540;5.854;2023-10-13T19:12:45;12.01;11.67;9.82
45312;PMS7003;68267;51.540;5.854;2023-10-13T19:26:07;5.29;8.08;6.99
45312;PMS7003;68267;51.540;5.854;2023-10-13T19:39:27;6.25;8.95;8.29
45312;PMS7003;68267;51.540;5.854;2023-10-13T19:52:46;13.57;12.98;10.8
45312;PMS7003;68267;51.540;5.854;2023-10-13T20:06:06;13.45;13.2;11.78
45312;PMS7003;68267;51.540;5.854;2023-10-13T20:19:26;14.77;13.85;11.67
45312;PMS7003;68267;51.540;5.854;2023-10-13T20:32:46;9.85;12.22;10.69
45312;PMS7003;68267;51.540;5.854;2023-10-13T20:46:05;9.97;12.33;10.36
45312;PMS7003;68267;51.540;5.854;2023-10-13T20:59:25;9.37;11.78;9.82
45312;PMS7003;68267;51.540;5.854;2023-10-13T21:12:45;12.73;12.22;9.71
45312;PMS7003;68267;51.540;5.854;2023-10-13T21:26:05;9.85;12.22;9.49
45312;PMS7003;68267;51.540;5.854;2023-10-13T21:39:24;11.29;12.11;9.71
45312;PMS7003;68267;51.540;5.854;2023-10-13T21:52:47;8.77;11.24;9.06
45312;PMS7003;68267;51.540;5.854;2023-10-13T22:06:06;12.85;11.56;9.38
45312;PMS7003;68267;51.540;5.854;2023-10-13T22:19:26;11.89;11.13;8.95
45312;PMS7003;68267;51.540;5.854;2023-10-13T22:32:48;8.41;10.91;8.95
45312;PMS7003;68267;51.540;5.854;2023-10-13T22:46:08;7.93;10.47;9.38
45312;PMS7003;68267;51.540;5.854;2023-10-13T22:59:28;8.29;10.8;8.95
45312;PMS7003;68267;51.540;5.854;2023-10-13T23:12:47;9.85;10.58;9.17
45312;PMS7003;68267;51.540;5.854;2023-10-13T23:26:07;8.29;10.8;8.84
45312;PMS7003;68267;51.540;5.854;2023-10-13T23:39:27;13.21;10.15;8.51
45312;PMS7003;68267;51.540;5.854;2023-10-13T23:52:46;7.45;10.04;8.62
